createdAt,value
2023-05-17T00:01:24.273Z,0
2023-05-17T00:03:04.103Z,0
2023-05-17T00:04:43.875Z,0
2023-05-17T00:06:23.626Z,0
2023-05-17T00:08:03.333Z,0
2023-05-17T00:09:43.110Z,0
2023-05-17T00:11:22.871Z,0
2023-05-17T00:13:02.677Z,0
2023-05-17T00:14:42.402Z,0
2023-05-17T00:16:22.357Z,0
2023-05-17T00:18:02.089Z,0
2023-05-17T00:19:41.711Z,0
2023-05-17T00:21:21.591Z,0
2023-05-17T00:23:01.247Z,0
2023-05-17T00:24:41.049Z,0
2023-05-17T00:26:20.912Z,0
2023-05-17T00:28:00.645Z,0
2023-05-17T00:29:40.344Z,0
2023-05-17T00:31:20.113Z,0
2023-05-17T00:32:59.875Z,0
2023-05-17T00:34:39.795Z,0
2023-05-17T00:36:19.382Z,0
2023-05-17T00:37:59.155Z,0
2023-05-17T00:39:39.065Z,0
2023-05-17T00:41:18.785Z,0
2023-05-17T00:42:58.461Z,0
2023-05-17T00:44:38.228Z,0
2023-05-17T00:46:18.089Z,0
2023-05-17T00:47:57.772Z,0
2023-05-17T00:49:37.594Z,0
2023-05-17T00:51:17.359Z,0
2023-05-17T00:52:57.055Z,0
2023-05-17T00:54:36.867Z,0
2023-05-17T00:56:16.671Z,0
2023-05-17T00:57:56.356Z,0
2023-05-17T00:59:36.132Z,0
2023-05-17T01:01:15.906Z,0
2023-05-17T01:02:55.699Z,0
2023-05-17T01:04:35.503Z,0
2023-05-17T01:06:15.201Z,0
2023-05-17T01:07:54.998Z,0
2023-05-17T01:09:34.743Z,0
2023-05-17T01:11:14.510Z,0
2023-05-17T01:12:54.303Z,0
2023-05-17T01:14:34.025Z,0
2023-05-17T01:16:13.794Z,0
2023-05-17T01:17:53.563Z,0
2023-05-17T01:19:33.339Z,0
2023-05-17T01:21:13.129Z,0
2023-05-17T01:22:52.873Z,0
2023-05-17T01:24:32.662Z,0
2023-05-17T01:26:12.417Z,0
2023-05-17T01:27:52.242Z,0
2023-05-17T01:29:31.996Z,0
2023-05-17T01:31:11.700Z,0
2023-05-17T01:32:51.494Z,0
2023-05-17T01:34:31.296Z,0
2023-05-17T01:36:11.033Z,0
2023-05-17T01:37:50.921Z,0
2023-05-17T01:39:30.533Z,0
2023-05-17T01:41:10.315Z,0
2023-05-17T01:42:50.096Z,0
2023-05-17T01:44:29.840Z,0
2023-05-17T01:46:09.607Z,0
2023-05-17T01:47:49.369Z,0
2023-05-17T01:49:29.150Z,0
2023-05-17T01:51:08.922Z,0
2023-05-17T01:52:48.691Z,0
2023-05-17T01:54:28.460Z,0
2023-05-17T01:56:08.217Z,0
2023-05-17T01:57:47.978Z,0
2023-05-17T01:59:27.805Z,0
2023-05-17T02:01:07.515Z,0
2023-05-17T02:02:47.317Z,0
2023-05-17T02:04:27.063Z,0
2023-05-17T02:06:06.822Z,0
2023-05-17T02:07:46.679Z,0
2023-05-17T02:09:26.361Z,0
2023-05-17T02:11:06.115Z,0
2023-05-17T02:12:45.900Z,0
2023-05-17T02:14:25.660Z,0
2023-05-17T02:16:05.449Z,0
2023-05-17T02:17:45.200Z,0
2023-05-17T02:19:24.956Z,0
2023-05-17T02:21:04.731Z,0
2023-05-17T02:22:44.514Z,0
2023-05-17T02:24:24.246Z,0
2023-05-17T02:26:04.150Z,0
2023-05-17T02:27:43.813Z,0
2023-05-17T02:29:23.565Z,0
2023-05-17T02:31:03.354Z,0
2023-05-17T02:32:43.172Z,0
2023-05-17T02:34:22.869Z,0
2023-05-17T02:36:02.634Z,0
2023-05-17T02:37:42.424Z,0
2023-05-17T02:39:22.177Z,0
2023-05-17T02:41:01.950Z,0
2023-05-17T02:42:41.756Z,0
2023-05-17T02:44:21.465Z,0
2023-05-17T02:46:01.246Z,0
2023-05-17T02:47:41.036Z,0
2023-05-17T02:49:20.814Z,0
2023-05-17T02:51:00.541Z,0
2023-05-17T02:52:40.304Z,0
2023-05-17T02:54:20.080Z,0
2023-05-17T02:55:59.874Z,0
2023-05-17T02:57:39.636Z,0
2023-05-17T02:59:19.372Z,0
2023-05-17T03:00:59.166Z,0
2023-05-17T03:02:38.907Z,0
2023-05-17T03:04:18.747Z,0
2023-05-17T03:05:58.468Z,0
2023-05-17T03:07:38.232Z,0
2023-05-17T03:09:17.997Z,0
2023-05-17T03:10:57.789Z,0
2023-05-17T03:12:37.526Z,0
2023-05-17T03:14:17.358Z,0
2023-05-17T03:15:57.068Z,0
2023-05-17T03:17:36.929Z,0
2023-05-17T03:19:16.610Z,0
2023-05-17T03:20:56.345Z,0
2023-05-17T03:22:36.159Z,0
2023-05-17T03:24:15.909Z,0
2023-05-17T03:25:55.650Z,0.01
2023-05-17T03:27:35.422Z,0.01
2023-05-17T03:29:15.209Z,0.05
2023-05-17T03:30:54.994Z,0.06
2023-05-17T03:32:34.712Z,0.08
2023-05-17T03:34:14.498Z,0.1
2023-05-17T03:35:54.294Z,0.11
2023-05-17T03:37:34.031Z,0.13
2023-05-17T03:39:13.847Z,0.17
2023-05-17T03:40:53.589Z,0.16
2023-05-17T03:42:33.412Z,0.19
2023-05-17T03:44:13.123Z,0.18
2023-05-17T03:45:52.876Z,0.18
2023-05-17T03:47:32.685Z,0.22
2023-05-17T03:49:12.432Z,0.2
2023-05-17T03:50:52.197Z,0.19
2023-05-17T03:52:31.995Z,0.2
2023-05-17T03:54:11.798Z,0.21
2023-05-17T03:55:51.502Z,0.19
2023-05-17T03:57:31.284Z,0.19
2023-05-17T03:59:11.045Z,0.17
2023-05-17T04:00:50.864Z,0.19
2023-05-17T04:02:30.591Z,0.22
2023-05-17T04:04:10.418Z,0.25
2023-05-17T04:05:50.146Z,0.25
2023-05-17T04:07:29.889Z,0.28
2023-05-17T04:09:09.670Z,0.33
2023-05-17T04:10:49.426Z,0.34
2023-05-17T04:12:29.208Z,0.33
2023-05-17T04:14:08.976Z,0.35
2023-05-17T04:15:48.749Z,0.31
2023-05-17T04:17:28.533Z,0.31
2023-05-17T04:19:08.327Z,0.31
2023-05-17T04:20:48.078Z,0.34
2023-05-17T04:22:27.844Z,0.35
2023-05-17T04:24:07.606Z,0.36
2023-05-17T04:25:47.364Z,0.36
2023-05-17T04:27:27.159Z,0.37
2023-05-17T04:29:06.917Z,0.41
2023-05-17T04:30:46.677Z,0.49
2023-05-17T04:32:26.452Z,0.5
2023-05-17T04:34:06.223Z,0.63
2023-05-17T04:35:45.999Z,0.79
2023-05-17T04:37:25.755Z,0.96
2023-05-17T04:39:05.527Z,1.04
2023-05-17T04:40:45.329Z,1.07
2023-05-17T04:42:25.129Z,0.98
2023-05-17T04:44:04.847Z,0.83
2023-05-17T04:45:44.665Z,0.8
2023-05-17T04:47:24.559Z,0.69
2023-05-17T04:49:04.176Z,0.65
2023-05-17T04:50:43.929Z,0.85
2023-05-17T04:52:23.711Z,0.6
2023-05-17T04:54:03.573Z,0.86
2023-05-17T04:55:43.238Z,0.71
2023-05-17T04:57:23.038Z,0.81
2023-05-17T04:59:02.763Z,0.55
2023-05-17T05:00:42.573Z,0.55
2023-05-17T05:02:22.339Z,0.51
2023-05-17T05:04:02.089Z,0.52
2023-05-17T05:05:41.864Z,0.49
2023-05-17T05:07:21.628Z,0.49
2023-05-17T05:09:01.428Z,0.46
2023-05-17T05:10:41.170Z,0.46
2023-05-17T05:12:20.939Z,0.47
2023-05-17T05:14:00.715Z,0.44
2023-05-17T05:15:40.505Z,0.44
2023-05-17T05:17:20.265Z,0.46
2023-05-17T05:19:00.063Z,0.42
2023-05-17T05:20:39.799Z,0.44
2023-05-17T05:22:19.571Z,0.44
2023-05-17T05:23:59.335Z,0.43
2023-05-17T05:25:39.101Z,0.44
2023-05-17T05:27:18.861Z,0.45
2023-05-17T05:28:58.702Z,0.42
2023-05-17T05:30:38.408Z,0.44
2023-05-17T05:32:18.179Z,0.44
2023-05-17T05:33:57.948Z,0.43
2023-05-17T05:35:37.845Z,0.42
2023-05-17T05:37:17.485Z,0.43
2023-05-17T05:38:57.270Z,0.45
2023-05-17T05:40:37.023Z,0.43
2023-05-17T05:42:16.807Z,0.43
2023-05-17T05:43:56.685Z,0.45
2023-05-17T05:45:36.361Z,0.47
2023-05-17T05:47:16.119Z,0.42
2023-05-17T05:48:55.886Z,0.43
2023-05-17T05:50:35.740Z,0.43
2023-05-17T05:52:15.439Z,0.44
2023-05-17T05:53:55.218Z,0.42
2023-05-17T05:55:34.964Z,0.41
2023-05-17T05:57:14.734Z,0.44
2023-05-17T05:58:54.519Z,0.42
2023-05-17T06:00:34.308Z,0.44
2023-05-17T06:02:14.121Z,0.43
2023-05-17T06:03:53.869Z,0.44
2023-05-17T06:05:33.666Z,0.43
2023-05-17T06:07:13.380Z,0.44
2023-05-17T06:08:53.265Z,0.45
2023-05-17T06:10:32.930Z,0.44
2023-05-17T06:12:12.703Z,0.43
2023-05-17T06:13:52.446Z,0.41
2023-05-17T06:15:32.222Z,0.41
2023-05-17T06:17:12.007Z,0.43
2023-05-17T06:18:51.763Z,0.42
2023-05-17T06:20:31.520Z,0.41
2023-05-17T06:22:11.293Z,0.41
2023-05-17T06:23:51.065Z,0.41
2023-05-17T06:25:30.840Z,0.41
2023-05-17T06:27:10.612Z,0.44
2023-05-17T06:28:50.416Z,0.42
2023-05-17T06:30:30.157Z,0.41
2023-05-17T06:32:09.925Z,0.43
2023-05-17T06:33:49.732Z,0.41
2023-05-17T06:35:29.514Z,0.43
2023-05-17T06:37:09.228Z,0.42
2023-05-17T06:38:49.066Z,0.39
2023-05-17T06:40:28.760Z,0.43
2023-05-17T06:42:08.544Z,0.38
2023-05-17T06:43:48.328Z,0.39
2023-05-17T06:45:28.111Z,0.39
2023-05-17T06:47:07.851Z,0.4
2023-05-17T06:48:47.631Z,0.42
2023-05-17T06:50:27.398Z,0.38
2023-05-17T06:52:07.155Z,0.4
2023-05-17T06:53:46.943Z,0.4
2023-05-17T06:55:26.712Z,0.4
2023-05-17T06:57:06.470Z,0.4
2023-05-17T06:58:46.282Z,0.39
2023-05-17T07:00:26.052Z,0.39
2023-05-17T07:02:05.785Z,0.39
2023-05-17T07:03:45.590Z,0.4
2023-05-17T07:05:25.320Z,0.41
2023-05-17T07:07:05.095Z,0.39
2023-05-17T07:08:44.862Z,0.39
2023-05-17T07:10:24.751Z,0.39
2023-05-17T07:12:04.417Z,0.39
2023-05-17T07:13:44.185Z,0.4
2023-05-17T07:15:24.011Z,0.4
2023-05-17T07:17:03.721Z,0.4
2023-05-17T07:18:43.506Z,0.38
2023-05-17T07:20:23.339Z,0.38
2023-05-17T07:22:03.033Z,0.4
2023-05-17T07:23:42.799Z,0.39
2023-05-17T07:25:22.616Z,0.39
2023-05-17T07:27:02.420Z,0.39
2023-05-17T07:28:42.131Z,0.4
2023-05-17T07:30:21.918Z,0.39
2023-05-17T07:32:01.674Z,0.39
2023-05-17T07:33:41.578Z,0.38
2023-05-17T07:35:21.181Z,0.39
2023-05-17T07:37:01.042Z,0.4
2023-05-17T07:38:40.895Z,0.39
2023-05-17T07:40:20.505Z,0.39
2023-05-17T07:42:00.312Z,0.4
2023-05-17T07:43:40.068Z,0.38
2023-05-17T07:45:19.826Z,0.4
2023-05-17T07:46:59.590Z,0.38
2023-05-17T07:48:39.376Z,0.38
2023-05-17T07:50:19.140Z,0.39
2023-05-17T07:51:59.085Z,0.38
2023-05-17T07:53:38.688Z,0.39
2023-05-17T07:55:18.575Z,0
2023-05-17T07:56:58.233Z,0
2023-05-17T07:58:37.982Z,0
2023-05-17T08:00:17.766Z,0
2023-05-17T08:01:57.512Z,0
2023-05-17T08:03:37.389Z,0
2023-05-17T08:05:17.059Z,0
2023-05-17T08:06:56.818Z,0.06
2023-05-17T08:08:36.603Z,0.05
2023-05-17T08:10:16.373Z,0.06
2023-05-17T08:11:56.159Z,0.08
2023-05-17T08:13:35.958Z,0.08
2023-05-17T08:15:15.760Z,0.08
2023-05-17T08:16:55.601Z,0.09
2023-05-17T08:18:35.694Z,0.09
2023-05-17T08:20:15.126Z,0.09
2023-05-17T08:21:54.753Z,0.09
2023-05-17T08:23:34.535Z,0.09
2023-05-17T08:25:14.371Z,0.09
2023-05-17T08:26:54.071Z,0.08
2023-05-17T08:28:33.957Z,0.09
2023-05-17T08:30:13.705Z,0.09
2023-05-17T08:31:53.553Z,0.1
2023-05-17T08:33:33.315Z,0.1
2023-05-17T08:35:12.980Z,0.1
2023-05-17T08:36:52.789Z,0.1
2023-05-17T08:38:32.523Z,0.09
2023-05-17T08:40:12.234Z,0.1
2023-05-17T08:41:51.988Z,0.09
2023-05-17T08:43:31.816Z,0.1
2023-05-17T08:45:11.529Z,0.09
2023-05-17T08:46:51.474Z,0.09
2023-05-17T08:48:31.186Z,0.1
2023-05-17T08:50:10.932Z,0.1
2023-05-17T08:51:50.685Z,0.1
2023-05-17T08:53:30.618Z,0.09
2023-05-17T08:55:10.277Z,0.1
2023-05-17T08:56:49.965Z,0.09
2023-05-17T08:58:29.733Z,0.09
2023-05-17T09:00:09.477Z,0.09
2023-05-17T09:01:49.256Z,0.1
2023-05-17T09:03:29.022Z,0.09
2023-05-17T09:05:08.789Z,0.09
2023-05-17T09:06:48.759Z,0.09
2023-05-17T09:08:28.337Z,0.08
2023-05-17T09:10:08.111Z,0.1
2023-05-17T09:11:47.854Z,0.1
2023-05-17T09:13:27.634Z,0.09
2023-05-17T09:15:07.426Z,0.1
2023-05-17T09:16:47.187Z,0.1
2023-05-17T09:18:27.022Z,0.09
2023-05-17T09:20:06.709Z,0.09
2023-05-17T09:21:46.506Z,0.09
2023-05-17T09:23:26.280Z,0.09
2023-05-17T09:25:06.046Z,0.09
2023-05-17T09:26:45.986Z,0.09
2023-05-17T09:28:25.762Z,0.09
2023-05-17T09:30:05.346Z,0.08
2023-05-17T09:31:45.340Z,0.09
2023-05-17T09:33:25.045Z,0.1
2023-05-17T09:35:04.757Z,0.08
2023-05-17T09:36:44.690Z,0.09
2023-05-17T09:38:24.189Z,0.09
2023-05-17T09:40:03.967Z,0.09
2023-05-17T09:41:43.911Z,0.09
2023-05-17T09:43:23.514Z,0.09
2023-05-17T09:45:03.337Z,0.09
2023-05-17T09:46:43.029Z,0.08
2023-05-17T09:48:22.801Z,0.08
2023-05-17T09:50:02.683Z,0.09
2023-05-17T09:51:42.547Z,0.09
2023-05-17T09:53:22.266Z,0.08
2023-05-17T09:55:02.082Z,0.08
2023-05-17T09:56:41.828Z,0.08
2023-05-17T09:58:21.675Z,0.08
2023-05-17T10:00:01.224Z,0.09
2023-05-17T10:01:40.974Z,0.08
2023-05-17T10:03:20.771Z,0.09
2023-05-17T10:05:00.656Z,0.09
2023-05-17T10:06:40.402Z,0.08
2023-05-17T10:08:20.156Z,0.08
2023-05-17T10:09:59.831Z,0.1
2023-05-17T10:11:39.601Z,0.09
2023-05-17T10:13:19.564Z,0.09
2023-05-17T10:14:59.331Z,0.09
2023-05-17T10:16:38.916Z,0.08
2023-05-17T10:18:18.788Z,0.09
2023-05-17T10:19:58.497Z,0.09
2023-05-17T10:21:38.270Z,0.08
2023-05-17T10:23:18.082Z,0.1
2023-05-17T10:24:57.802Z,0.09
2023-05-17T10:26:37.536Z,0.08
2023-05-17T10:28:17.311Z,0.08
2023-05-17T10:29:57.074Z,0.09
2023-05-17T10:31:36.867Z,0.09
2023-05-17T10:33:16.790Z,0.08
2023-05-17T10:34:56.520Z,0.08
2023-05-17T10:36:36.352Z,0.08
2023-05-17T10:38:15.938Z,0.08
2023-05-17T10:39:55.790Z,0.08
2023-05-17T10:41:35.534Z,0.08
2023-05-17T10:43:15.381Z,0.08
2023-05-17T10:44:55.038Z,0.08
2023-05-17T10:46:34.803Z,0.09
2023-05-17T10:48:14.554Z,0.08
2023-05-17T10:49:54.314Z,0.08
2023-05-17T10:51:34.247Z,0.08
2023-05-17T10:53:13.966Z,0.08
2023-05-17T10:54:53.773Z,0.08
2023-05-17T10:56:33.459Z,0.09
2023-05-17T10:58:13.259Z,0.09
2023-05-17T10:59:52.980Z,0.08
2023-05-17T11:01:32.721Z,0.08
2023-05-17T11:03:12.506Z,0.08
2023-05-17T11:04:52.314Z,0.07
2023-05-17T11:06:32.043Z,0.07
2023-05-17T11:08:11.789Z,0.09
2023-05-17T11:09:51.633Z,0.08
2023-05-17T11:11:31.399Z,0.08
2023-05-17T11:13:11.104Z,0.08
2023-05-17T11:14:50.887Z,0.07
2023-05-17T11:16:30.759Z,0.09
2023-05-17T11:18:10.463Z,0.07
2023-05-17T11:19:50.187Z,0.07
2023-05-17T11:21:29.989Z,0.08
2023-05-17T11:23:09.827Z,0.07
2023-05-17T11:24:49.540Z,0.09
2023-05-17T11:26:29.299Z,0.08
2023-05-17T11:28:09.154Z,0.08
2023-05-17T11:29:48.813Z,0.08
2023-05-17T11:31:28.634Z,0.07
2023-05-17T11:33:08.353Z,0.08
2023-05-17T11:34:48.164Z,0.08
2023-05-17T11:36:27.897Z,0.08
2023-05-17T11:38:07.678Z,0.07
2023-05-17T11:39:47.450Z,0.07
2023-05-17T11:41:27.227Z,0.08
2023-05-17T11:43:06.994Z,0.07
2023-05-17T11:44:46.756Z,0.07
2023-05-17T11:46:26.553Z,0.07
2023-05-17T11:48:06.334Z,0.07
2023-05-17T11:49:46.062Z,0.08
2023-05-17T11:51:25.899Z,0.07
2023-05-17T11:53:05.600Z,0.08
2023-05-17T11:54:45.346Z,0.08
2023-05-17T11:56:25.200Z,0.08
2023-05-17T11:58:04.918Z,0.07
2023-05-17T11:59:44.837Z,0.08
2023-05-17T12:01:24.450Z,0.07
2023-05-17T12:03:04.278Z,0.08
2023-05-17T12:04:44.044Z,0.08
2023-05-17T12:06:23.754Z,0.07
2023-05-17T12:08:03.525Z,0.08
2023-05-17T12:09:43.304Z,0.08
2023-05-17T12:11:23.071Z,0.07
2023-05-17T12:13:02.859Z,0.07
2023-05-17T12:14:42.621Z,0.07
2023-05-17T12:16:22.383Z,0.07
2023-05-17T12:18:02.160Z,0.08
2023-05-17T12:19:41.965Z,0.07
2023-05-17T12:21:21.695Z,0.07
2023-05-17T12:23:01.462Z,0.08
2023-05-17T12:24:41.240Z,0.07
2023-05-17T12:26:21.049Z,0.07
2023-05-17T12:28:00.796Z,0.07
2023-05-17T12:29:40.538Z,0.08
2023-05-17T12:31:20.321Z,0.07
2023-05-17T12:33:00.117Z,0.08
2023-05-17T12:34:39.858Z,0.08
2023-05-17T12:36:19.625Z,0.07
2023-05-17T12:37:59.390Z,0.08
2023-05-17T12:39:39.169Z,0.07
2023-05-17T12:41:18.993Z,0.08
2023-05-17T12:42:58.697Z,0.07
2023-05-17T12:44:38.518Z,0.07
2023-05-17T12:46:18.243Z,0.03
2023-05-17T12:47:58.075Z,0.06
2023-05-17T12:49:37.862Z,0.07
2023-05-17T12:51:17.554Z,0.08
2023-05-17T12:52:57.334Z,0.07
2023-05-17T12:54:37.111Z,0.07
2023-05-17T12:56:16.914Z,0.08
2023-05-17T12:57:56.655Z,0.07
2023-05-17T12:59:36.525Z,0.08
2023-05-17T13:01:16.181Z,0.07
2023-05-17T13:02:55.950Z,0.07
2023-05-17T13:04:35.882Z,0.07
2023-05-17T13:06:15.553Z,0.07
2023-05-17T13:07:55.418Z,0.07
2023-05-17T13:09:35.247Z,0.07
2023-05-17T13:11:14.915Z,0.07
2023-05-17T13:12:54.634Z,0.08
2023-05-17T13:14:34.354Z,0.07
2023-05-17T13:16:14.136Z,0.07
2023-05-17T13:17:54.112Z,0.06
2023-05-17T13:19:33.681Z,0.07
2023-05-17T13:21:13.440Z,0.07
2023-05-17T13:22:53.195Z,0.07
2023-05-17T13:24:33.055Z,0.07
2023-05-17T13:26:12.738Z,0.08
2023-05-17T13:27:52.516Z,0.07
2023-05-17T13:29:32.423Z,0.07
2023-05-17T13:31:12.214Z,0.07
2023-05-17T13:32:51.996Z,0.07
2023-05-17T13:34:31.774Z,0.07
2023-05-17T13:36:11.373Z,0.06
2023-05-17T13:37:51.227Z,0.06
2023-05-17T13:39:30.984Z,0.06
2023-05-17T13:41:10.756Z,0.06
2023-05-17T13:42:50.595Z,0.07
2023-05-17T13:44:30.352Z,0.07
2023-05-17T13:46:10.172Z,0.06
2023-05-17T13:47:49.876Z,0.07
2023-05-17T13:49:29.525Z,0.07
2023-05-17T13:51:09.484Z,0.07
2023-05-17T13:52:49.078Z,0.07
2023-05-17T13:54:28.913Z,0.06
2023-05-17T13:56:08.696Z,0.07
2023-05-17T13:57:48.409Z,0.06
2023-05-17T13:59:28.273Z,0.07
2023-05-17T14:01:07.957Z,0.07
2023-05-17T14:02:47.755Z,0.08
2023-05-17T14:04:27.465Z,0.07
2023-05-17T14:06:07.234Z,0.07
2023-05-17T14:07:47.108Z,0.06
2023-05-17T14:09:26.831Z,0.07
2023-05-17T14:11:06.620Z,0.06
2023-05-17T14:12:46.306Z,0.06
2023-05-17T14:14:26.087Z,0.08
2023-05-17T14:16:05.870Z,0.06
2023-05-17T14:17:45.632Z,0.06
2023-05-17T14:19:25.413Z,0.06
2023-05-17T14:21:05.176Z,0.07
2023-05-17T14:22:44.937Z,0.06
2023-05-17T14:24:24.746Z,0.06
2023-05-17T14:26:04.473Z,0.06
2023-05-17T14:27:44.242Z,0.07
2023-05-17T14:29:24.039Z,0.07
2023-05-17T14:31:03.881Z,0.06
2023-05-17T14:32:43.575Z,0.07
2023-05-17T14:34:23.325Z,0.07
2023-05-17T14:36:03.100Z,0.07
2023-05-17T14:37:42.878Z,0.07
2023-05-17T14:39:22.731Z,0.06
2023-05-17T14:41:02.473Z,0.06
2023-05-17T14:42:42.204Z,0.06
2023-05-17T14:44:22.114Z,0.06
2023-05-17T14:46:01.721Z,0.06
2023-05-17T14:47:41.549Z,0.06
2023-05-17T14:49:21.256Z,0.06
2023-05-17T14:51:01.074Z,0.06
2023-05-17T14:52:40.818Z,0.06
2023-05-17T14:54:20.655Z,0.07
2023-05-17T14:56:00.402Z,0.06
2023-05-17T14:57:40.130Z,0.07
2023-05-17T14:59:19.969Z,0.06
2023-05-17T15:00:59.727Z,0.07
2023-05-17T15:02:39.462Z,0.06
2023-05-17T15:04:19.261Z,0.07
2023-05-17T15:05:58.978Z,0.05
2023-05-17T15:07:38.738Z,0.06
2023-05-17T15:09:18.569Z,0.06
2023-05-17T15:10:58.296Z,0.07
2023-05-17T15:12:38.039Z,0.06
2023-05-17T15:14:17.803Z,0.07
2023-05-17T15:15:57.594Z,0.07
2023-05-17T15:17:37.371Z,0.06
2023-05-17T15:19:17.143Z,0.06
2023-05-17T15:20:57.001Z,0.06
2023-05-17T15:22:36.679Z,0.1
2023-05-17T15:24:16.443Z,0.07
2023-05-17T15:25:56.225Z,0.06
2023-05-17T15:27:36.032Z,0.06
2023-05-17T15:29:15.823Z,0.06
2023-05-17T15:30:55.519Z,0.07
2023-05-17T15:32:35.364Z,0.06
2023-05-17T15:34:15.085Z,0.06
2023-05-17T15:35:54.846Z,0.06
2023-05-17T15:37:34.660Z,0.06
2023-05-17T15:39:14.371Z,0.07
2023-05-17T15:40:54.153Z,0.08
2023-05-17T15:42:33.994Z,0.06
2023-05-17T15:44:13.691Z,0.05
2023-05-17T15:45:53.462Z,0.07
2023-05-17T15:47:33.225Z,0.05
2023-05-17T15:49:13.021Z,0.06
2023-05-17T15:50:52.816Z,0.07
2023-05-17T15:52:32.562Z,0.07
2023-05-17T15:54:12.312Z,0.07
2023-05-17T15:55:52.095Z,0.06
2023-05-17T15:57:31.875Z,0.07
2023-05-17T15:59:11.617Z,0.06
2023-05-17T16:00:51.397Z,0.06
2023-05-17T16:02:31.170Z,0.07
2023-05-17T16:04:10.920Z,0.07
2023-05-17T16:05:50.703Z,0.06
2023-05-17T16:07:30.521Z,0.06
2023-05-17T16:09:10.260Z,0.06
2023-05-17T16:10:50.026Z,0.06
2023-05-17T16:12:29.792Z,0.06
2023-05-17T16:14:09.554Z,0.05
2023-05-17T16:15:49.322Z,0.05
2023-05-17T16:17:29.177Z,0.06
2023-05-17T16:19:08.866Z,0.06
2023-05-17T16:20:48.632Z,0.06
2023-05-17T16:22:28.405Z,0.06
2023-05-17T16:24:08.220Z,0.07
2023-05-17T16:25:47.940Z,0.06
2023-05-17T16:27:27.726Z,0.06
2023-05-17T16:29:07.517Z,0.06
2023-05-17T16:30:47.274Z,0.06
2023-05-17T16:32:27.016Z,0.07
2023-05-17T16:34:06.796Z,0.05
2023-05-17T16:35:46.578Z,0.06
2023-05-17T16:37:26.420Z,0.07
2023-05-17T16:39:06.112Z,0.06
2023-05-17T16:40:45.889Z,0.09
2023-05-17T16:42:25.655Z,0.06
2023-05-17T16:44:05.422Z,0.07
2023-05-17T16:45:45.208Z,0.07
2023-05-17T16:47:24.980Z,0.05
2023-05-17T16:49:04.790Z,0.05
2023-05-17T16:50:44.503Z,0.06
2023-05-17T16:52:24.275Z,0.06
2023-05-17T16:54:04.104Z,0.05
2023-05-17T16:55:43.839Z,0.06
2023-05-17T16:57:23.610Z,0.06
2023-05-17T16:59:03.352Z,0.06
2023-05-17T17:00:43.136Z,0.06
2023-05-17T17:02:22.978Z,0.06
2023-05-17T17:04:02.667Z,0.06
2023-05-17T17:05:42.445Z,0.06
2023-05-17T17:07:22.203Z,0.06
2023-05-17T17:09:01.974Z,0.07
2023-05-17T17:10:41.766Z,0.06
2023-05-17T17:12:21.505Z,0.05
2023-05-17T17:14:01.282Z,0.06
2023-05-17T17:15:41.074Z,0.06
2023-05-17T17:17:20.834Z,0.06
2023-05-17T17:19:00.699Z,0.06
2023-05-17T17:20:40.364Z,0.06
2023-05-17T17:22:20.142Z,0.07
2023-05-17T17:23:59.919Z,0.07
2023-05-17T17:25:39.679Z,0.05
2023-05-17T17:27:19.437Z,0.07
2023-05-17T17:28:59.223Z,0.05
2023-05-17T17:30:38.985Z,0.06
2023-05-17T17:32:18.766Z,0.04
2023-05-17T17:33:58.534Z,0.06
2023-05-17T17:35:38.306Z,0.06
2023-05-17T17:37:18.064Z,0.07
2023-05-17T17:38:57.845Z,0.06
2023-05-17T17:40:37.621Z,0.06
2023-05-17T17:42:17.390Z,0.06
2023-05-17T17:43:57.269Z,0.07
2023-05-17T17:45:36.930Z,0.06
2023-05-17T17:47:16.843Z,0.06
2023-05-17T17:48:56.471Z,0.06
2023-05-17T17:50:36.243Z,0.07
2023-05-17T17:52:16.011Z,0.07
2023-05-17T17:53:55.777Z,0.06
2023-05-17T17:55:35.551Z,0.06
2023-05-17T17:57:15.336Z,0.07
2023-05-17T17:58:55.100Z,0.07
2023-05-17T18:00:34.859Z,0.06
2023-05-17T18:02:14.636Z,0.07
2023-05-17T18:03:54.409Z,0.07
2023-05-17T18:05:34.186Z,0.06
2023-05-17T18:07:13.947Z,0.07
2023-05-17T18:08:53.717Z,0.07
2023-05-17T18:10:33.497Z,0.07
2023-05-17T18:12:13.248Z,0.07
2023-05-17T18:13:53.043Z,0.07
2023-05-17T18:15:32.800Z,0.07
2023-05-17T18:17:12.571Z,0.07
2023-05-17T18:18:52.336Z,0.08
2023-05-17T18:20:32.109Z,0.07
2023-05-17T18:22:12.027Z,0.07
2023-05-17T18:23:51.642Z,0.07
2023-05-17T18:25:31.423Z,0.07
2023-05-17T18:27:11.333Z,0.07
2023-05-17T18:28:50.968Z,0.07
2023-05-17T18:30:30.732Z,0.07
2023-05-17T18:32:10.513Z,0.07
2023-05-17T18:33:50.286Z,0.07
2023-05-17T18:35:30.049Z,0.08
2023-05-17T18:37:09.805Z,0.09
2023-05-17T18:38:49.578Z,0.08
2023-05-17T18:40:29.347Z,0.08
2023-05-17T18:42:09.115Z,0.08
2023-05-17T18:43:48.907Z,0.09
2023-05-17T18:45:28.667Z,0.08
2023-05-17T18:47:08.426Z,0.06
2023-05-17T18:48:48.216Z,0.05
2023-05-17T18:50:27.971Z,0.06
2023-05-17T18:52:07.745Z,0.03
2023-05-17T18:53:47.507Z,0.01
2023-05-17T18:55:27.289Z,0
2023-05-17T18:57:07.041Z,0
2023-05-17T18:58:46.812Z,0
2023-05-17T19:00:26.570Z,0
2023-05-17T19:02:06.363Z,0
2023-05-17T19:03:46.116Z,0
2023-05-17T19:05:25.885Z,0
2023-05-17T19:07:05.654Z,0
2023-05-17T19:08:45.417Z,0
2023-05-17T19:10:25.178Z,0
2023-05-17T19:12:04.945Z,0
2023-05-17T19:13:44.723Z,0
2023-05-17T19:15:24.489Z,0
2023-05-17T19:17:04.262Z,0
2023-05-17T19:18:44.034Z,0
2023-05-17T19:20:23.799Z,0
2023-05-17T19:22:03.557Z,0
2023-05-17T19:23:43.337Z,0
2023-05-17T19:25:23.103Z,0
2023-05-17T19:27:02.864Z,0
2023-05-17T19:28:42.647Z,0
2023-05-17T19:30:22.413Z,0
2023-05-17T19:32:02.169Z,0
2023-05-17T19:33:41.933Z,0
2023-05-17T19:35:21.705Z,0
2023-05-17T19:37:01.471Z,0
2023-05-17T19:38:41.247Z,0
2023-05-17T19:40:21.003Z,0
2023-05-17T19:42:00.771Z,0
2023-05-17T19:43:40.540Z,0
2023-05-17T19:45:20.313Z,0
2023-05-17T19:47:00.073Z,0
2023-05-17T19:48:39.845Z,0
2023-05-17T19:50:19.599Z,0
2023-05-17T19:51:59.376Z,0
2023-05-17T19:53:39.146Z,0
2023-05-17T19:55:18.913Z,0
2023-05-17T19:56:58.684Z,0
2023-05-17T19:58:38.441Z,0
2023-05-17T20:00:18.243Z,0
2023-05-17T20:01:57.993Z,0
2023-05-17T20:03:37.756Z,0
2023-05-17T20:05:17.514Z,0
2023-05-17T20:06:57.292Z,0
2023-05-17T20:08:37.041Z,0
2023-05-17T20:10:16.834Z,0
2023-05-17T20:11:56.593Z,0
2023-05-17T20:13:36.360Z,0
2023-05-17T20:15:16.113Z,0
2023-05-17T20:16:55.882Z,0
2023-05-17T20:18:35.642Z,0
2023-05-17T20:20:15.438Z,0
2023-05-17T20:21:55.288Z,0
2023-05-17T20:23:34.961Z,0
2023-05-17T20:25:14.723Z,0
2023-05-17T20:26:54.503Z,0
2023-05-17T20:28:34.267Z,0
2023-05-17T20:30:14.028Z,0
2023-05-17T20:31:53.799Z,0
2023-05-17T20:33:33.557Z,0
2023-05-17T20:35:13.333Z,0
2023-05-17T20:36:53.098Z,0
2023-05-17T20:38:32.919Z,0
2023-05-17T20:40:12.621Z,0
2023-05-17T20:41:52.427Z,0
2023-05-17T20:43:32.251Z,0
2023-05-17T20:45:11.966Z,0
2023-05-17T20:46:51.690Z,0
2023-05-17T20:48:31.481Z,0
2023-05-17T20:50:11.225Z,0
2023-05-17T20:51:51.005Z,0
2023-05-17T20:53:30.775Z,0
2023-05-17T20:55:10.567Z,0
2023-05-17T20:56:50.304Z,0
2023-05-17T20:58:30.068Z,0
2023-05-17T21:00:09.844Z,0
2023-05-17T21:01:49.611Z,0
2023-05-17T21:03:29.423Z,0
2023-05-17T21:05:09.137Z,0
2023-05-17T21:06:48.905Z,0
2023-05-17T21:08:28.707Z,0
2023-05-17T21:10:08.472Z,0
2023-05-17T21:11:48.221Z,0
2023-05-17T21:13:28.078Z,0
2023-05-17T21:15:07.882Z,0
2023-05-17T21:16:47.510Z,0
2023-05-17T21:18:27.380Z,0
2023-05-17T21:20:07.202Z,0
2023-05-17T21:21:46.992Z,0
2023-05-17T21:23:26.747Z,0
2023-05-17T21:25:06.618Z,0
2023-05-17T21:26:46.318Z,0
2023-05-17T21:28:26.036Z,0
2023-05-17T21:30:05.824Z,0
2023-05-17T21:31:45.494Z,0
2023-05-17T21:33:25.387Z,0
2023-05-17T21:35:05.174Z,0
2023-05-17T21:36:44.767Z,0
2023-05-17T21:38:24.495Z,0
2023-05-17T21:40:04.355Z,0
2023-05-17T21:41:44.224Z,0
2023-05-17T21:43:23.910Z,0
2023-05-17T21:45:03.746Z,0
2023-05-17T21:46:43.490Z,0
2023-05-17T21:48:23.272Z,0
2023-05-17T21:50:03.025Z,0
2023-05-17T21:51:42.809Z,0
2023-05-17T21:53:22.528Z,0
2023-05-17T21:55:02.184Z,0
2023-05-17T21:56:42.098Z,0
2023-05-17T21:58:21.901Z,0
2023-05-17T22:00:01.632Z,0
2023-05-17T22:01:41.408Z,0
2023-05-17T22:03:20.997Z,0
2023-05-17T22:05:00.949Z,0
2023-05-17T22:06:40.640Z,0
2023-05-17T22:08:20.549Z,0
2023-05-17T22:10:00.301Z,0
2023-05-17T22:11:40.048Z,0
2023-05-17T22:13:19.792Z,0
2023-05-17T22:14:59.433Z,0
2023-05-17T22:16:39.144Z,0
2023-05-17T22:18:18.910Z,0
2023-05-17T22:19:58.754Z,0
2023-05-17T22:21:38.619Z,0
2023-05-17T22:23:18.397Z,0
2023-05-17T22:24:58.179Z,0
2023-05-17T22:26:37.898Z,0
2023-05-17T22:28:17.647Z,0
2023-05-17T22:29:57.514Z,0
2023-05-17T22:31:37.196Z,0
2023-05-17T22:33:16.941Z,0
2023-05-17T22:34:56.651Z,0
2023-05-17T22:36:36.353Z,0
2023-05-17T22:38:16.117Z,0
2023-05-17T22:39:56.061Z,0
2023-05-17T22:41:35.661Z,0
2023-05-17T22:43:15.605Z,0
2023-05-17T22:44:55.353Z,0
2023-05-17T22:46:35.205Z,0
2023-05-17T22:48:14.968Z,0
2023-05-17T22:49:54.632Z,0
2023-05-17T22:51:34.476Z,0
2023-05-17T22:53:14.079Z,0
2023-05-17T22:54:53.869Z,0
2023-05-17T22:56:33.753Z,0